createdAt,value
2023-01-31T00:01:16.835Z,27.02
2023-01-31T00:03:45.097Z,25.25
2023-01-31T00:06:22.214Z,25.80
2023-01-31T00:08:50.123Z,24.88
2023-01-31T00:11:19.367Z,27.83
2023-01-31T00:13:46.910Z,32.08
2023-01-31T00:16:15.251Z,25.45
2023-01-31T00:18:42.689Z,32.13
2023-01-31T00:21:12.441Z,26.10
2023-01-31T00:23:40.800Z,24.80
2023-01-31T00:26:16.020Z,27.48
2023-01-31T00:28:44.264Z,22.35
2023-01-31T00:31:12.499Z,21.85
2023-01-31T00:33:41.163Z,22.00
2023-01-31T00:36:10.399Z,24.55
2023-01-31T00:38:37.861Z,27.15
2023-01-31T00:41:05.576Z,29.50
2023-01-31T00:43:32.800Z,27.17
2023-01-31T00:46:00.130Z,27.88
2023-01-31T00:48:26.978Z,26.75
2023-01-31T00:50:53.931Z,28.70
2023-01-31T00:53:23.912Z,26.75
2023-01-31T00:55:56.373Z,27.45
2023-01-31T00:58:23.059Z,25.38
2023-01-31T01:00:49.853Z,24.25
2023-01-31T01:03:16.578Z,29.63
2023-01-31T01:05:43.165Z,25.80
2023-01-31T01:08:10.215Z,27.35
2023-01-31T01:10:37.031Z,25.08
2023-01-31T01:13:05.812Z,27.70
2023-01-31T01:15:33.165Z,32.75
2023-01-31T01:17:59.765Z,28.88
2023-01-31T01:20:26.426Z,26.05
2023-01-31T01:22:53.586Z,35.83
2023-01-31T01:25:20.759Z,30.48
2023-01-31T01:27:47.650Z,30.10
2023-01-31T01:30:14.389Z,28.55
2023-01-31T01:32:41.070Z,30.83
2023-01-31T01:35:08.038Z,30.63
2023-01-31T01:37:34.754Z,27.25
2023-01-31T01:40:01.401Z,27.33
2023-01-31T01:42:28.544Z,29.08
2023-01-31T01:44:58.173Z,28.92
2023-01-31T01:47:50.126Z,30.13
2023-01-31T01:50:42.783Z,28.23
2023-01-31T01:55:42.327Z,30.85
2023-01-31T01:58:20.029Z,32.65
2023-01-31T02:00:47.566Z,30.58
2023-01-31T02:03:16.056Z,28.52
2023-01-31T02:05:48.008Z,28.10
2023-01-31T02:08:18.171Z,28.70
2023-01-31T02:10:53.641Z,22.95
2023-01-31T02:13:21.172Z,24.05
2023-01-31T02:15:48.227Z,24.58
2023-01-31T02:18:16.042Z,30.45
2023-01-31T02:21:13.367Z,25.25
2023-01-31T02:23:42.971Z,22.75
2023-01-31T02:26:33.893Z,20.55
2023-01-31T02:29:06.145Z,23.83
2023-01-31T02:34:12.612Z,21.48
2023-01-31T02:37:09.693Z,20.35
2023-01-31T02:39:45.643Z,25.02
2023-01-31T02:43:05.745Z,22.70
2023-01-31T02:45:42.091Z,21.08
2023-01-31T02:48:38.911Z,25.10
2023-01-31T02:51:10.856Z,18.60
2023-01-31T02:53:52.323Z,22.80
2023-01-31T02:56:30.679Z,19.17
2023-01-31T02:59:09.729Z,20.90
2023-01-31T03:01:47.623Z,18.83
2023-01-31T03:04:14.896Z,21.17
2023-01-31T03:07:00.321Z,22.15
2023-01-31T03:09:31.634Z,21.17
2023-01-31T03:12:30.727Z,21.60
2023-01-31T03:15:24.904Z,16.77
2023-01-31T03:18:00.654Z,17.25
2023-01-31T03:20:36.474Z,17.52
2023-01-31T03:23:13.648Z,18.75
2023-01-31T03:25:41.115Z,21.50
2023-01-31T03:28:14.764Z,21.52
2023-01-31T03:30:54.384Z,19.45
2023-01-31T03:33:27.250Z,18.55
2023-01-31T03:36:00.489Z,20.88
2023-01-31T03:38:34.795Z,17.40
2023-01-31T03:41:34.501Z,17.52
2023-01-31T03:44:12.245Z,21.48
2023-01-31T03:46:46.040Z,20.45
2023-01-31T03:49:16.500Z,19.80
2023-01-31T03:51:52.460Z,24.05
2023-01-31T03:54:25.222Z,19.08
2023-01-31T03:57:08.754Z,36.78
2023-01-31T03:59:39.448Z,19.88
2023-01-31T04:02:10.574Z,21.48
2023-01-31T04:04:42.638Z,20.92
2023-01-31T04:07:09.865Z,22.73
2023-01-31T04:09:38.264Z,23.77
2023-01-31T04:12:05.615Z,24.35
2023-01-31T04:14:32.543Z,20.20
2023-01-31T04:16:59.353Z,21.52
2023-01-31T04:19:26.011Z,24.50
2023-01-31T04:21:52.632Z,24.15
2023-01-31T04:24:19.349Z,22.05
2023-01-31T04:26:46.020Z,18.50
2023-01-31T04:29:12.702Z,19.27
2023-01-31T04:31:40.449Z,25.15
2023-01-31T04:34:07.971Z,28.65
2023-01-31T04:36:34.642Z,27.98
2023-01-31T04:39:01.232Z,33.20
2023-01-31T04:41:27.823Z,25.23
2023-01-31T04:43:54.482Z,27.63
2023-01-31T04:46:21.192Z,26.42
2023-01-31T04:48:47.987Z,28.63
2023-01-31T04:51:14.689Z,30.02
2023-01-31T04:53:44.046Z,37.20
2023-01-31T04:56:10.884Z,27.63
2023-01-31T04:58:37.473Z,30.05
2023-01-31T05:01:04.279Z,25.55
2023-01-31T05:03:31.062Z,30.75
2023-01-31T05:05:58.258Z,25.80
2023-01-31T05:08:25.052Z,26.85
2023-01-31T05:10:58.218Z,24.35
2023-01-31T05:13:25.400Z,25.08
2023-01-31T05:15:52.089Z,30.48
2023-01-31T05:18:18.747Z,25.40
2023-01-31T05:20:45.587Z,25.92
2023-01-31T05:23:13.415Z,23.30
2023-01-31T05:25:40.074Z,21.00
2023-01-31T05:28:06.840Z,23.80
2023-01-31T05:30:33.700Z,24.50
2023-01-31T05:33:00.673Z,27.48
2023-01-31T05:35:27.367Z,27.00
2023-01-31T05:37:55.338Z,35.65
2023-01-31T05:40:23.177Z,20.40
2023-01-31T05:43:03.111Z,31.15
2023-01-31T05:45:31.107Z,26.65
2023-01-31T05:47:58.187Z,22.30
2023-01-31T05:50:24.822Z,20.95
2023-01-31T05:52:59.769Z,25.95
2023-01-31T05:55:27.701Z,23.98
2023-01-31T05:57:54.532Z,31.20
2023-01-31T06:00:21.893Z,24.67
2023-01-31T06:02:49.064Z,22.33
2023-01-31T06:05:16.377Z,19.50
2023-01-31T06:07:42.968Z,27.45
2023-01-31T06:10:11.573Z,21.00
2023-01-31T06:12:38.181Z,25.08
2023-01-31T06:15:05.184Z,23.38
2023-01-31T06:17:31.802Z,20.63
2023-01-31T06:19:59.028Z,23.80
2023-01-31T06:22:25.770Z,22.23
2023-01-31T06:24:52.500Z,22.05
2023-01-31T06:27:19.153Z,19.67
2023-01-31T06:29:45.723Z,24.10
2023-01-31T06:32:12.335Z,26.52
2023-01-31T06:34:38.957Z,24.35
2023-01-31T06:37:09.116Z,19.80
2023-01-31T06:39:35.666Z,24.08
2023-01-31T06:42:02.386Z,25.20
2023-01-31T06:44:29.057Z,24.63
2023-01-31T06:46:56.100Z,23.23
2023-01-31T06:49:22.809Z,27.27
2023-01-31T06:51:49.496Z,26.60
2023-01-31T06:54:16.132Z,22.80
2023-01-31T06:56:42.787Z,16.48
2023-01-31T06:59:09.430Z,21.55
2023-01-31T07:01:36.135Z,19.25
2023-01-31T07:04:02.834Z,19.60
2023-01-31T07:06:29.456Z,19.58
2023-01-31T07:08:56.211Z,20.65
2023-01-31T07:11:22.885Z,21.45
2023-01-31T07:13:50.425Z,20.77
2023-01-31T07:16:17.387Z,20.25
2023-01-31T07:18:44.119Z,16.67
2023-01-31T07:21:10.977Z,18.35
2023-01-31T07:23:37.660Z,18.30
2023-01-31T07:26:05.678Z,19.50
2023-01-31T07:28:32.364Z,21.88
2023-01-31T07:31:12.283Z,24.02
2023-01-31T07:33:40.042Z,19.40
2023-01-31T07:36:08.345Z,19.10
2023-01-31T07:38:35.539Z,19.23
2023-01-31T07:41:04.145Z,17.52
2023-01-31T07:43:32.125Z,18.27
2023-01-31T07:45:59.000Z,21.30
2023-01-31T07:48:26.213Z,19.13
2023-01-31T07:50:58.757Z,20.27
2023-01-31T07:53:27.768Z,18.40
2023-01-31T07:55:54.345Z,22.50
2023-01-31T07:58:20.888Z,20.85
2023-01-31T08:01:06.312Z,17.38
2023-01-31T08:03:33.720Z,21.63
2023-01-31T08:06:08.390Z,19.00
2023-01-31T08:08:36.171Z,24.00
2023-01-31T08:11:05.169Z,22.02
2023-01-31T08:13:33.777Z,17.70
2023-01-31T08:16:00.430Z,17.35
2023-01-31T08:18:27.067Z,18.52
2023-01-31T08:20:54.005Z,16.63
2023-01-31T08:23:20.603Z,15.48
2023-01-31T08:25:47.292Z,15.20
2023-01-31T08:28:13.961Z,17.73
2023-01-31T08:30:42.486Z,16.00
2023-01-31T08:33:10.765Z,15.55
2023-01-31T08:35:37.980Z,14.60
2023-01-31T08:38:16.066Z,19.10
2023-01-31T08:40:44.263Z,11.48
2023-01-31T08:43:11.223Z,16.33
2023-01-31T08:45:38.050Z,16.77
2023-01-31T08:48:05.201Z,12.90
2023-01-31T08:50:32.936Z,15.00
2023-01-31T08:53:04.275Z,13.48
2023-01-31T08:55:31.787Z,13.77
2023-01-31T08:58:00.399Z,11.90
2023-01-31T09:00:27.348Z,12.48
2023-01-31T09:02:56.211Z,14.63
2023-01-31T09:05:23.548Z,11.52
2023-01-31T09:07:50.148Z,15.95
2023-01-31T09:10:18.504Z,11.63
2023-01-31T09:12:45.464Z,10.68
2023-01-31T09:15:12.660Z,11.60
2023-01-31T09:17:40.560Z,14.82
2023-01-31T09:20:10.212Z,9.45
2023-01-31T09:22:37.438Z,9.50
2023-01-31T09:25:04.899Z,12.38
2023-01-31T09:27:32.183Z,13.20
2023-01-31T09:29:58.888Z,8.32
2023-01-31T09:32:25.484Z,8.82
2023-01-31T09:34:52.161Z,10.75
2023-01-31T09:37:18.796Z,6.90
2023-01-31T09:39:45.434Z,11.52
2023-01-31T09:42:33.770Z,11.13
2023-01-31T09:45:04.523Z,11.95
2023-01-31T09:47:34.118Z,7.75
2023-01-31T09:50:03.625Z,6.28
2023-01-31T09:52:32.212Z,6.80
2023-01-31T09:54:59.568Z,8.93
2023-01-31T09:58:00.702Z,7.55
2023-01-31T10:00:46.740Z,6.50
2023-01-31T10:03:31.842Z,7.03
2023-01-31T10:06:17.439Z,10.25
2023-01-31T10:08:51.361Z,7.53
2023-01-31T10:11:42.444Z,7.53
2023-01-31T10:14:11.808Z,6.97
2023-01-31T10:16:46.403Z,6.95
2023-01-31T10:19:21.542Z,7.57
2023-01-31T10:21:54.036Z,6.28
2023-01-31T10:24:51.823Z,6.75
2023-01-31T10:27:33.512Z,6.78
2023-01-31T10:30:03.052Z,6.75
2023-01-31T10:32:40.230Z,5.13
2023-01-31T10:35:21.406Z,8.05
2023-01-31T10:37:54.326Z,7.97
2023-01-31T10:40:35.742Z,5.28
2023-01-31T10:43:15.828Z,6.18
2023-01-31T10:45:42.509Z,4.88
2023-01-31T10:48:18.668Z,7.40
2023-01-31T10:51:04.051Z,5.45
2023-01-31T10:54:13.149Z,5.60
2023-01-31T10:56:46.893Z,7.70
2023-01-31T10:59:26.245Z,6.50
2023-01-31T11:01:53.145Z,5.45
2023-01-31T11:04:31.862Z,5.03
2023-01-31T11:07:01.198Z,7.53
2023-01-31T11:09:32.677Z,5.80
2023-01-31T11:12:01.785Z,5.30
2023-01-31T11:14:30.064Z,3.60
2023-01-31T11:17:36.980Z,4.65
2023-01-31T11:20:06.657Z,5.32
2023-01-31T11:22:37.872Z,4.70
2023-01-31T11:25:06.350Z,4.75
2023-01-31T11:27:41.896Z,4.97
2023-01-31T11:30:29.034Z,6.68
2023-01-31T11:32:56.088Z,7.80
2023-01-31T11:35:31.450Z,4.95
2023-01-31T11:38:00.521Z,6.15
2023-01-31T11:40:33.782Z,5.60
2023-01-31T11:43:22.155Z,4.93
2023-01-31T11:46:02.807Z,8.13
2023-01-31T11:48:40.314Z,5.00
2023-01-31T11:51:07.563Z,5.15
2023-01-31T11:53:49.667Z,7.88
2023-01-31T11:56:23.019Z,5.20
2023-01-31T11:58:54.162Z,7.38
2023-01-31T12:01:23.232Z,7.00
2023-01-31T12:04:02.727Z,7.55
2023-01-31T12:06:34.654Z,7.90
2023-01-31T12:09:03.930Z,6.68
2023-01-31T12:11:35.677Z,9.15
2023-01-31T12:14:13.262Z,8.65
2023-01-31T12:16:39.959Z,4.97
2023-01-31T12:19:12.673Z,5.32
2023-01-31T12:22:04.086Z,5.47
2023-01-31T12:24:37.360Z,4.60
2023-01-31T12:27:39.440Z,5.75
2023-01-31T12:30:39.782Z,12.23
2023-01-31T12:33:26.765Z,12.73
2023-01-31T12:36:19.415Z,6.43
2023-01-31T12:41:18.453Z,4.90
2023-01-31T12:44:04.022Z,5.00
2023-01-31T12:46:33.849Z,4.57
2023-01-31T12:49:38.999Z,5.03
2023-01-31T12:52:29.482Z,6.18
2023-01-31T12:55:13.624Z,4.80
2023-01-31T12:57:40.181Z,3.70
2023-01-31T13:00:36.013Z,2.97
2023-01-31T13:03:26.446Z,3.70
2023-01-31T13:06:06.438Z,3.25
2023-01-31T13:08:36.355Z,16.88
2023-01-31T13:11:07.897Z,7.07
2023-01-31T13:13:52.952Z,3.05
2023-01-31T13:16:29.255Z,4.45
2023-01-31T13:19:01.740Z,4.93
2023-01-31T13:21:38.720Z,4.68
2023-01-31T13:24:27.224Z,6.90
2023-01-31T13:27:02.612Z,5.53
2023-01-31T13:29:35.198Z,9.65
2023-01-31T13:32:07.016Z,8.15
2023-01-31T13:34:51.976Z,4.65
2023-01-31T13:37:21.459Z,6.47
2023-01-31T13:39:52.382Z,5.38
2023-01-31T13:42:19.477Z,3.75
2023-01-31T13:44:47.525Z,5.05
2023-01-31T13:47:30.430Z,8.15
2023-01-31T13:50:01.769Z,4.72
2023-01-31T13:52:32.157Z,6.38
2023-01-31T13:55:08.474Z,9.48
2023-01-31T13:57:45.578Z,5.78
2023-01-31T14:00:34.233Z,4.80
2023-01-31T14:03:09.029Z,7.43
2023-01-31T14:05:50.751Z,8.07
2023-01-31T14:08:32.662Z,7.20
2023-01-31T14:11:02.046Z,6.43
2023-01-31T14:13:40.157Z,11.77
2023-01-31T14:16:31.717Z,9.23
2023-01-31T14:18:58.416Z,7.43
2023-01-31T14:21:31.077Z,5.40
2023-01-31T14:24:04.054Z,8.27
2023-01-31T14:26:43.175Z,5.50
2023-01-31T14:29:15.051Z,5.63
2023-01-31T14:31:44.269Z,6.38
2023-01-31T14:34:26.209Z,6.20
2023-01-31T14:37:07.954Z,4.25
2023-01-31T14:39:52.329Z,10.40
2023-01-31T14:43:02.150Z,9.40
2023-01-31T14:46:05.971Z,8.45
2023-01-31T14:48:53.549Z,4.95
2023-01-31T14:51:32.267Z,4.82
2023-01-31T14:54:19.085Z,7.32
2023-01-31T14:56:54.218Z,7.47
2023-01-31T14:59:41.865Z,9.35
2023-01-31T15:02:33.606Z,15.98
2023-01-31T15:05:06.240Z,8.05
2023-01-31T15:07:33.800Z,7.82
2023-01-31T15:10:00.753Z,7.70
2023-01-31T15:12:52.181Z,8.10
2023-01-31T15:15:36.689Z,11.05
2023-01-31T15:18:13.205Z,7.25
2023-01-31T15:20:45.660Z,8.63
2023-01-31T15:23:20.994Z,9.45
2023-01-31T15:25:49.021Z,5.57
2023-01-31T15:28:19.721Z,6.68
2023-01-31T15:30:47.488Z,5.40
2023-01-31T15:33:17.775Z,7.25
2023-01-31T15:36:02.688Z,5.25
2023-01-31T15:38:43.628Z,5.15
2023-01-31T15:41:26.508Z,9.52
2023-01-31T15:44:09.994Z,5.18
2023-01-31T15:46:36.622Z,12.50
2023-01-31T15:49:36.674Z,6.10
2023-01-31T15:52:08.054Z,5.97
2023-01-31T15:54:35.641Z,7.00
2023-01-31T15:57:03.543Z,8.90
2023-01-31T15:59:33.254Z,5.78
2023-01-31T16:02:04.834Z,8.55
2023-01-31T16:04:31.455Z,8.63
2023-01-31T16:06:59.194Z,7.38
2023-01-31T16:09:29.893Z,6.05
2023-01-31T16:11:59.150Z,9.60
2023-01-31T16:14:26.944Z,7.93
2023-01-31T16:16:58.242Z,9.27
2023-01-31T16:19:37.860Z,13.30
2023-01-31T16:22:28.567Z,11.95
2023-01-31T16:25:00.714Z,8.68
2023-01-31T16:27:32.775Z,5.97
2023-01-31T16:30:00.401Z,7.07
2023-01-31T16:32:33.721Z,8.00
2023-01-31T16:35:04.969Z,9.68
2023-01-31T16:37:40.758Z,9.20
2023-01-31T16:40:25.066Z,8.07
2023-01-31T16:43:10.185Z,15.50
2023-01-31T16:45:37.115Z,13.73
2023-01-31T16:48:22.192Z,12.50
2023-01-31T16:50:53.184Z,7.97
2023-01-31T16:53:34.571Z,11.45
2023-01-31T16:56:13.196Z,12.02
2023-01-31T16:58:51.062Z,9.68
2023-01-31T17:01:24.783Z,10.00
2023-01-31T17:04:03.314Z,7.05
2023-01-31T17:06:31.145Z,11.10
2023-01-31T17:08:58.442Z,4.88
2023-01-31T17:11:41.523Z,6.40
2023-01-31T17:14:09.338Z,5.53
2023-01-31T17:16:35.920Z,20.00
2023-01-31T17:19:02.436Z,8.15
2023-01-31T17:21:29.973Z,8.90
2023-01-31T17:23:56.588Z,8.05
2023-01-31T17:26:23.678Z,10.05
2023-01-31T17:29:00.821Z,10.75
2023-01-31T17:31:29.599Z,10.30
2023-01-31T17:33:56.764Z,7.82
2023-01-31T17:36:23.834Z,10.93
2023-01-31T17:38:52.027Z,9.48
2023-01-31T17:41:21.004Z,9.57
2023-01-31T17:43:47.627Z,10.38
2023-01-31T17:46:16.332Z,8.20
2023-01-31T17:48:43.576Z,6.55
2023-01-31T17:51:11.144Z,10.32
2023-01-31T17:53:48.806Z,7.88
2023-01-31T17:56:17.688Z,6.82
2023-01-31T17:58:44.567Z,6.20
2023-01-31T18:01:13.940Z,5.82
2023-01-31T18:03:40.698Z,9.98
2023-01-31T18:06:08.888Z,6.60
2023-01-31T18:08:35.780Z,7.93
2023-01-31T18:11:04.510Z,5.30
2023-01-31T18:13:31.278Z,7.40
2023-01-31T18:16:06.381Z,8.63
2023-01-31T18:18:33.324Z,5.38
2023-01-31T18:20:59.981Z,5.68
2023-01-31T18:23:26.742Z,4.90
2023-01-31T18:25:53.350Z,10.70
2023-01-31T18:28:19.944Z,5.10
2023-01-31T18:30:46.605Z,6.97
2023-01-31T18:33:13.205Z,10.73
2023-01-31T18:35:39.833Z,5.68
2023-01-31T18:38:06.835Z,7.80
2023-01-31T18:40:33.622Z,6.82
2023-01-31T18:43:00.342Z,8.20
2023-01-31T18:45:26.908Z,6.10
2023-01-31T18:47:53.604Z,10.50
2023-01-31T18:50:20.205Z,7.75
2023-01-31T18:52:47.410Z,7.97
2023-01-31T18:55:14.029Z,7.47
2023-01-31T18:57:40.606Z,7.63
2023-01-31T19:00:08.249Z,7.82
2023-01-31T19:02:34.925Z,6.47
2023-01-31T19:05:02.112Z,6.07
2023-01-31T19:07:28.740Z,6.97
2023-01-31T19:09:55.538Z,11.02
2023-01-31T19:12:22.125Z,7.45
2023-01-31T19:14:48.702Z,9.70
2023-01-31T19:17:15.885Z,6.88
2023-01-31T19:19:42.721Z,8.93
2023-01-31T19:22:09.384Z,8.40
2023-01-31T19:24:36.161Z,9.13
2023-01-31T19:27:02.710Z,4.15
2023-01-31T19:29:29.331Z,9.70
2023-01-31T19:31:55.956Z,9.82
2023-01-31T19:34:23.101Z,10.75
2023-01-31T19:36:49.834Z,4.95
2023-01-31T19:39:16.532Z,10.75
2023-01-31T19:41:43.116Z,9.95
2023-01-31T19:44:10.480Z,8.75
2023-01-31T19:46:38.003Z,7.13
2023-01-31T19:49:04.999Z,10.35
2023-01-31T19:51:31.991Z,8.48
2023-01-31T19:54:01.435Z,8.45
2023-01-31T19:56:28.856Z,8.75
2023-01-31T19:58:55.771Z,7.38
2023-01-31T20:01:22.849Z,7.90
2023-01-31T20:03:50.243Z,8.18
2023-01-31T20:06:22.010Z,6.63
2023-01-31T20:08:53.821Z,8.55
2023-01-31T20:11:20.739Z,9.93
2023-01-31T20:13:52.902Z,8.40
2023-01-31T20:16:21.612Z,6.70
2023-01-31T20:18:49.951Z,4.38
2023-01-31T20:21:19.251Z,8.98
2023-01-31T20:23:45.937Z,6.85
2023-01-31T20:26:13.339Z,5.88
2023-01-31T20:28:40.236Z,5.15
2023-01-31T20:31:10.195Z,8.82
2023-01-31T20:33:37.418Z,6.60
2023-01-31T20:36:05.342Z,8.07
2023-01-31T20:38:32.614Z,6.13
2023-01-31T20:40:59.404Z,12.60
2023-01-31T20:43:27.280Z,5.28
2023-01-31T20:46:01.164Z,8.32
2023-01-31T20:48:27.784Z,8.45
2023-01-31T20:50:58.231Z,7.53
2023-01-31T20:53:25.339Z,13.98
2023-01-31T20:56:00.965Z,7.88
2023-01-31T20:58:29.662Z,9.43
2023-01-31T21:00:57.733Z,7.15
2023-01-31T21:03:24.785Z,10.27
2023-01-31T21:05:52.286Z,7.95
2023-01-31T21:08:21.199Z,8.88
2023-01-31T21:10:52.891Z,9.88
2023-01-31T21:13:20.611Z,6.80
2023-01-31T21:15:55.700Z,8.48
2023-01-31T21:18:26.329Z,7.03
2023-01-31T21:20:53.218Z,6.65
2023-01-31T21:23:19.899Z,4.40
2023-01-31T21:25:46.526Z,5.57
2023-01-31T21:28:13.177Z,3.70
2023-01-31T21:30:40.259Z,5.53
2023-01-31T21:33:07.179Z,6.50
2023-01-31T21:35:33.837Z,5.70
2023-01-31T21:38:00.520Z,6.97
2023-01-31T21:40:27.289Z,3.38
2023-01-31T21:42:54.787Z,10.30
2023-01-31T21:45:39.635Z,5.50
2023-01-31T21:48:29.989Z,5.80
2023-01-31T21:50:57.269Z,11.10
2023-01-31T21:53:24.207Z,7.80
2023-01-31T21:55:50.903Z,6.38
2023-01-31T21:58:17.544Z,7.50
2023-01-31T22:00:44.423Z,7.28
2023-01-31T22:03:11.384Z,5.25
2023-01-31T22:05:38.353Z,5.18
2023-01-31T22:08:05.435Z,6.50
2023-01-31T22:10:32.242Z,6.65
2023-01-31T22:12:58.951Z,6.07
2023-01-31T22:15:25.664Z,3.95
2023-01-31T22:17:53.013Z,6.35
2023-01-31T22:20:20.343Z,4.45
2023-01-31T22:22:48.622Z,4.35
2023-01-31T22:25:15.646Z,5.00
2023-01-31T22:27:42.486Z,9.32
2023-01-31T22:30:16.159Z,14.10
2023-01-31T22:32:43.569Z,11.68
2023-01-31T22:35:10.616Z,9.85
2023-01-31T22:37:37.252Z,7.80
2023-01-31T22:40:04.606Z,8.13
2023-01-31T22:42:31.252Z,9.43
2023-01-31T22:44:57.874Z,6.15
2023-01-31T22:47:25.044Z,9.52
2023-01-31T22:49:51.675Z,8.45
2023-01-31T22:52:18.302Z,7.95
2023-01-31T22:54:44.893Z,10.43
2023-01-31T22:57:11.595Z,6.88
2023-01-31T22:59:38.181Z,7.25
2023-01-31T23:02:05.054Z,6.75
2023-01-31T23:04:31.684Z,8.55
2023-01-31T23:06:58.294Z,6.00
2023-01-31T23:09:24.913Z,5.82
2023-01-31T23:11:51.566Z,5.85
2023-01-31T23:14:18.252Z,7.95
2023-01-31T23:17:03.535Z,7.28
2023-01-31T23:19:30.277Z,8.80
2023-01-31T23:21:56.872Z,5.07
2023-01-31T23:24:24.833Z,6.47
2023-01-31T23:26:51.585Z,4.40
2023-01-31T23:29:18.283Z,7.65
2023-01-31T23:31:46.167Z,5.00
2023-01-31T23:34:13.131Z,6.85
2023-01-31T23:36:39.768Z,5.50
2023-01-31T23:39:06.539Z,5.75
2023-01-31T23:41:33.158Z,4.78
2023-01-31T23:43:59.741Z,5.05
2023-01-31T23:46:26.436Z,5.75
2023-01-31T23:48:53.288Z,5.57
2023-01-31T23:51:19.859Z,9.15
2023-01-31T23:53:46.540Z,9.35
2023-01-31T23:56:13.175Z,9.18
2023-01-31T23:58:39.781Z,7.25
